Pagrindinis puslapis
METAR-TAF:

METAR-TAF

Oro uostai :

Abilene, Teksasas, Jungtinės Amerikos Valstijos

platuma: 32-24-37N, ilguma: 099-40-54W, Aukštis: 545 m

Dabartinis oras

Ataskaita buvo paskelbta 55 minutes, ne 10:52 UTC
Vėjas 6 kt iš Pietų
Temperatūra 14°C
Drėgmė 47%
Slėgis 1022 hPa
Matomumas: 16.1 km
Giedras dangus

METAR: KABI 231052Z 19006KT 10SM CLR 14/03 A3017 RMK AO2 SLP195 T01390028

Laikas: 06:47 (11:47 UTC)

Prognozė

Ataskaita buvo paskelbta 22 minutes, ne 11:25 UTC
Prognozė galioja nuo 23 metu 12 UTC su 24 metu 12 UTC
Vėjas 6 kt nuo kintamojo kryptimis
Matomumas: 10 km
Giedras dangus
Nuo 23 metu 1600 UTC
Vėjas 12 kt iš Pietų
Matomumas: 10 km
Giedras dangus
Nuo 24 metu 0400 UTC
Vėjas 8 kt iš Pietų/Pietryčių
Matomumas: 10 km
Mažai debesys ne aukštis 15000 ft
Išsisklaidę debesys ne aukštis 25000 ft

TAF: KABI 231125Z 2312/2412 VRB06KT P6SM SKC FM231600 19012KT P6SM SKC FM240400 16008KT P6SM FEW150 SCT250

Orai ataskaitas ir orų prognozės (METAR, TAF).

turimą stotys yra geltonos ir raudonos taškus žemėlapyje.

Perkelti pele per norėdami pamatyti stoties vardą.

Tada spustelėkite, norėdami matyti oro stebėjimo ir prognozės.

Norėdami pakeisti žemėlapį: spustelėkite ant žalios mygtukų su juodo kryžiaus žemyn,; žalią mygtuką su brūkšneliu, jei norite nutolinti; arba žalių rodyklių gretimoms žemėlapius.


METAR-TAF: